Terminal Aerodrome Forecast
Issued by NWS Sterling, VA

Current Version | Previous Version | Graphics & Text | Print | Product List | Glossary On
Versions: 1 2 3 4 5 6 7 8 9 10 11 12 13 14
000
FTUS41 KLWX 181100
TAFMRB
TAF
KMRB 181125Z 1812/1912 VRB03KT P6SM SCT035 BKN050
     FM181600 35004KT P6SM FEW035 SCT050
     FM191100 02004KT P6SM BKN050=

USA.gov is the U.S. government's official web portal to all federal, state and local government web resources and services.